sim
Sign-in with your pilot id or email,
or register
Callsign
Passwort

Schedule Details

Flight Number: OEO8305
Departure: Saarbr├╝cken Airport (EDDR) at 10:45
Arrival: Munich Airport (EDDM) at 11:55

Weather Information
Getting current METAR information for EDDR 281020Z VRB02KT 9999 FEW008 SCT018 11/08 Q1011 NOSIG
Getting current METAR information for EDDM 281020Z 25005KT 9999 FEW007 SCT045 09/07 Q1011 NOSIG

Schedule Frequency

Route Map